sensor_id;sensor_type;location;lat;lon;timestamp;P1;P2;P0
71872;PMS5003;59745;52.924;-2.388;2022-09-03T00:03:02;27;25;
71872;PMS5003;59745;52.924;-2.388;2022-09-03T00:05:28;29;26;
71872;PMS5003;59745;52.924;-2.388;2022-09-03T00:07:53;29;29;
71872;PMS5003;59745;52.924;-2.388;2022-09-03T00:10:18;33;31;
71872;PMS5003;59745;52.924;-2.388;2022-09-03T00:12:41;29;26;
71872;PMS5003;59745;52.924;-2.388;2022-09-03T00:15:07;32;30;
71872;PMS5003;59745;52.924;-2.388;2022-09-03T00:17:33;29;28;
71872;PMS5003;59745;52.924;-2.388;2022-09-03T00:19:58;34;32;
71872;PMS5003;59745;52.924;-2.388;2022-09-03T00:22:23;33;32;
71872;PMS5003;59745;52.924;-2.388;2022-09-03T00:24:48;33;32;
71872;PMS5003;59745;52.924;-2.388;2022-09-03T00:27:14;33;31;
71872;PMS5003;59745;52.924;-2.388;2022-09-03T00:29:40;34;34;
71872;PMS5003;59745;52.924;-2.388;2022-09-03T00:32:06;31;31;
71872;PMS5003;59745;52.924;-2.388;2022-09-03T00:34:31;29;28;
71872;PMS5003;59745;52.924;-2.388;2022-09-03T00:36:56;32;31;
71872;PMS5003;59745;52.924;-2.388;2022-09-03T00:39:22;35;32;
71872;PMS5003;59745;52.924;-2.388;2022-09-03T00:41:50;30;29;
71872;PMS5003;59745;52.924;-2.388;2022-09-03T00:44:16;29;29;
71872;PMS5003;59745;52.924;-2.388;2022-09-03T00:46:39;34;34;
71872;PMS5003;59745;52.924;-2.388;2022-09-03T00:49:08;36;35;
71872;PMS5003;59745;52.924;-2.388;2022-09-03T00:51:31;31;31;
71872;PMS5003;59745;52.924;-2.388;2022-09-03T00:53:56;36;35;
71872;PMS5003;59745;52.924;-2.388;2022-09-03T00:56:22;35;34;
71872;PMS5003;59745;52.924;-2.388;2022-09-03T00:58:50;36;35;
71872;PMS5003;59745;52.924;-2.388;2022-09-03T01:01:14;29;28;
71872;PMS5003;59745;52.924;-2.388;2022-09-03T01:03:38;36;33;
71872;PMS5003;59745;52.924;-2.388;2022-09-03T01:06:06;34;34;
71872;PMS5003;59745;52.924;-2.388;2022-09-03T01:08:29;37;36;
71872;PMS5003;59745;52.924;-2.388;2022-09-03T01:10:54;37;36;
71872;PMS5003;59745;52.924;-2.388;2022-09-03T01:13:19;36;36;
71872;PMS5003;59745;52.924;-2.388;2022-09-03T01:15:44;35;35;
71872;PMS5003;59745;52.924;-2.388;2022-09-03T01:18:10;29;29;
71872;PMS5003;59745;52.924;-2.388;2022-09-03T01:20:37;33;33;
71872;PMS5003;59745;52.924;-2.388;2022-09-03T01:23:08;35;35;
71872;PMS5003;59745;52.924;-2.388;2022-09-03T01:25:27;36;36;
71872;PMS5003;59745;52.924;-2.388;2022-09-03T01:30:16;33;33;
71872;PMS5003;59745;52.924;-2.388;2022-09-03T01:32:41;37;36;
71872;PMS5003;59745;52.924;-2.388;2022-09-03T01:35:09;35;34;
71872;PMS5003;59745;52.924;-2.388;2022-09-03T01:37:34;29;29;
71872;PMS5003;59745;52.924;-2.388;2022-09-03T01:40:00;37;36;
71872;PMS5003;59745;52.924;-2.388;2022-09-03T01:42:24;37;37;
71872;PMS5003;59745;52.924;-2.388;2022-09-03T01:47:17;35;32;
71872;PMS5003;59745;52.924;-2.388;2022-09-03T01:49:39;35;34;
71872;PMS5003;59745;52.924;-2.388;2022-09-03T01:52:05;35;34;
71872;PMS5003;59745;52.924;-2.388;2022-09-03T01:54:35;35;34;
71872;PMS5003;59745;52.924;-2.388;2022-09-03T01:59:21;42;39;
71872;PMS5003;59745;52.924;-2.388;2022-09-03T02:01:48;31;30;
71872;PMS5003;59745;52.924;-2.388;2022-09-03T02:04:13;33;31;
71872;PMS5003;59745;52.924;-2.388;2022-09-03T02:06:36;44;43;
71872;PMS5003;59745;52.924;-2.388;2022-09-03T02:09:02;35;34;
71872;PMS5003;59745;52.924;-2.388;2022-09-03T02:11:27;28;27;
71872;PMS5003;59745;52.924;-2.388;2022-09-03T02:13:53;28;28;
71872;PMS5003;59745;52.924;-2.388;2022-09-03T02:16:20;39;38;
71872;PMS5003;59745;52.924;-2.388;2022-09-03T02:18:45;45;45;
71872;PMS5003;59745;52.924;-2.388;2022-09-03T02:21:10;37;34;
71872;PMS5003;59745;52.924;-2.388;2022-09-03T02:23:37;31;30;
71872;PMS5003;59745;52.924;-2.388;2022-09-03T02:26:01;38;36;
71872;PMS5003;59745;52.924;-2.388;2022-09-03T02:28:26;31;30;
71872;PMS5003;59745;52.924;-2.388;2022-09-03T02:30:51;32;31;
71872;PMS5003;59745;52.924;-2.388;2022-09-03T02:33:16;38;37;
71872;PMS5003;59745;52.924;-2.388;2022-09-03T02:35:42;29;29;
71872;PMS5003;59745;52.924;-2.388;2022-09-03T02:38:09;43;42;
71872;PMS5003;59745;52.924;-2.388;2022-09-03T02:40:33;36;35;
71872;PMS5003;59745;52.924;-2.388;2022-09-03T02:42:58;38;37;
71872;PMS5003;59745;52.924;-2.388;2022-09-03T02:45:26;43;42;
71872;PMS5003;59745;52.924;-2.388;2022-09-03T02:47:50;42;39;
71872;PMS5003;59745;52.924;-2.388;2022-09-03T02:50:14;40;38;
71872;PMS5003;59745;52.924;-2.388;2022-09-03T02:52:39;45;41;
71872;PMS5003;59745;52.924;-2.388;2022-09-03T02:55:05;43;42;
71872;PMS5003;59745;52.924;-2.388;2022-09-03T02:57:30;45;44;
71872;PMS5003;59745;52.924;-2.388;2022-09-03T02:59:56;48;46;
71872;PMS5003;59745;52.924;-2.388;2022-09-03T03:02:21;43;42;
71872;PMS5003;59745;52.924;-2.388;2022-09-03T03:04:47;44;39;
71872;PMS5003;59745;52.924;-2.388;2022-09-03T03:07:13;43;41;
71872;PMS5003;59745;52.924;-2.388;2022-09-03T03:09:38;39;39;
71872;PMS5003;59745;52.924;-2.388;2022-09-03T03:12:04;41;40;
71872;PMS5003;59745;52.924;-2.388;2022-09-03T03:14:29;49;48;
71872;PMS5003;59745;52.924;-2.388;2022-09-03T03:16:54;51;48;
71872;PMS5003;59745;52.924;-2.388;2022-09-03T03:19:19;49;48;
71872;PMS5003;59745;52.924;-2.388;2022-09-03T03:21:45;45;43;
71872;PMS5003;59745;52.924;-2.388;2022-09-03T03:24:11;47;44;
71872;PMS5003;59745;52.924;-2.388;2022-09-03T03:26:36;46;43;
71872;PMS5003;59745;52.924;-2.388;2022-09-03T03:29:02;52;50;
71872;PMS5003;59745;52.924;-2.388;2022-09-03T03:31:28;55;51;
71872;PMS5003;59745;52.924;-2.388;2022-09-03T03:33:54;51;47;
71872;PMS5003;59745;52.924;-2.388;2022-09-03T03:36:18;59;57;
71872;PMS5003;59745;52.924;-2.388;2022-09-03T03:38:44;47;45;
71872;PMS5003;59745;52.924;-2.388;2022-09-03T03:41:10;44;43;
71872;PMS5003;59745;52.924;-2.388;2022-09-03T03:43:35;56;54;
71872;PMS5003;59745;52.924;-2.388;2022-09-03T03:46:00;56;52;
71872;PMS5003;59745;52.924;-2.388;2022-09-03T03:48:25;46;45;
71872;PMS5003;59745;52.924;-2.388;2022-09-03T03:50:50;57;53;
71872;PMS5003;59745;52.924;-2.388;2022-09-03T03:53:15;41;41;
71872;PMS5003;59745;52.924;-2.388;2022-09-03T03:55:41;57;55;
71872;PMS5003;59745;52.924;-2.388;2022-09-03T03:58:06;52;51;
71872;PMS5003;59745;52.924;-2.388;2022-09-03T04:00:32;50;50;
71872;PMS5003;59745;52.924;-2.388;2022-09-03T04:03:02;52;51;
71872;PMS5003;59745;52.924;-2.388;2022-09-03T04:05:23;51;48;
71872;PMS5003;59745;52.924;-2.388;2022-09-03T04:07:48;56;52;
71872;PMS5003;59745;52.924;-2.388;2022-09-03T04:10:13;61;59;
71872;PMS5003;59745;52.924;-2.388;2022-09-03T04:12:39;55;54;
71872;PMS5003;59745;52.924;-2.388;2022-09-03T04:15:04;62;60;
71872;PMS5003;59745;52.924;-2.388;2022-09-03T04:17:29;55;54;
71872;PMS5003;59745;52.924;-2.388;2022-09-03T04:19:55;55;52;
71872;PMS5003;59745;52.924;-2.388;2022-09-03T04:22:20;59;55;
71872;PMS5003;59745;52.924;-2.388;2022-09-03T04:24:46;55;53;
71872;PMS5003;59745;52.924;-2.388;2022-09-03T04:27:11;66;61;
71872;PMS5003;59745;52.924;-2.388;2022-09-03T04:29:36;60;56;
71872;PMS5003;59745;52.924;-2.388;2022-09-03T04:32:02;60;60;
71872;PMS5003;59745;52.924;-2.388;2022-09-03T04:34:28;57;56;
71872;PMS5003;59745;52.924;-2.388;2022-09-03T04:36:53;63;61;
71872;PMS5003;59745;52.924;-2.388;2022-09-03T04:39:19;69;66;
71872;PMS5003;59745;52.924;-2.388;2022-09-03T04:41:45;69;65;
71872;PMS5003;59745;52.924;-2.388;2022-09-03T04:44:10;75;69;
71872;PMS5003;59745;52.924;-2.388;2022-09-03T04:46:35;67;64;
71872;PMS5003;59745;52.924;-2.388;2022-09-03T04:49:01;55;55;
71872;PMS5003;59745;52.924;-2.388;2022-09-03T04:51:27;70;67;
71872;PMS5003;59745;52.924;-2.388;2022-09-03T04:53:53;65;61;
71872;PMS5003;59745;52.924;-2.388;2022-09-03T04:56:19;63;62;
71872;PMS5003;59745;52.924;-2.388;2022-09-03T04:58:44;78;75;
71872;PMS5003;59745;52.924;-2.388;2022-09-03T05:01:09;72;70;
71872;PMS5003;59745;52.924;-2.388;2022-09-03T05:03:35;72;67;
71872;PMS5003;59745;52.924;-2.388;2022-09-03T05:06:00;76;74;
71872;PMS5003;59745;52.924;-2.388;2022-09-03T05:08:25;83;80;
71872;PMS5003;59745;52.924;-2.388;2022-09-03T05:13:16;79;71;
71872;PMS5003;59745;52.924;-2.388;2022-09-03T05:15:42;65;62;
71872;PMS5003;59745;52.924;-2.388;2022-09-03T05:18:07;75;72;
71872;PMS5003;59745;52.924;-2.388;2022-09-03T05:20:32;73;71;
71872;PMS5003;59745;52.924;-2.388;2022-09-03T05:23:00;71;65;
71872;PMS5003;59745;52.924;-2.388;2022-09-03T05:25:23;68;64;
71872;PMS5003;59745;52.924;-2.388;2022-09-03T05:27:48;73;69;
71872;PMS5003;59745;52.924;-2.388;2022-09-03T05:30:14;62;60;
71872;PMS5003;59745;52.924;-2.388;2022-09-03T05:32:39;67;62;
71872;PMS5003;59745;52.924;-2.388;2022-09-03T05:35:06;72;70;
71872;PMS5003;59745;52.924;-2.388;2022-09-03T05:37:30;67;62;
71872;PMS5003;59745;52.924;-2.388;2022-09-03T05:39:56;65;63;
71872;PMS5003;59745;52.924;-2.388;2022-09-03T05:42:21;63;61;
71872;PMS5003;59745;52.924;-2.388;2022-09-03T05:44:46;66;63;
71872;PMS5003;59745;52.924;-2.388;2022-09-03T05:47:12;65;65;
71872;PMS5003;59745;52.924;-2.388;2022-09-03T05:49:37;70;70;
71872;PMS5003;59745;52.924;-2.388;2022-09-03T05:52:03;66;62;
71872;PMS5003;59745;52.924;-2.388;2022-09-03T05:54:28;66;62;
71872;PMS5003;59745;52.924;-2.388;2022-09-03T05:56:53;70;69;
71872;PMS5003;59745;52.924;-2.388;2022-09-03T05:59:18;72;67;
71872;PMS5003;59745;52.924;-2.388;2022-09-03T06:01:44;77;72;
71872;PMS5003;59745;52.924;-2.388;2022-09-03T06:04:10;64;61;
71872;PMS5003;59745;52.924;-2.388;2022-09-03T06:06:35;68;64;
71872;PMS5003;59745;52.924;-2.388;2022-09-03T06:09:00;70;63;
71872;PMS5003;59745;52.924;-2.388;2022-09-03T06:11:25;59;57;
71872;PMS5003;59745;52.924;-2.388;2022-09-03T06:13:50;64;56;
71872;PMS5003;59745;52.924;-2.388;2022-09-03T06:16:15;74;72;
71872;PMS5003;59745;52.924;-2.388;2022-09-03T06:18:41;75;71;
71872;PMS5003;59745;52.924;-2.388;2022-09-03T06:21:07;70;68;
71872;PMS5003;59745;52.924;-2.388;2022-09-03T06:23:32;79;73;
71872;PMS5003;59745;52.924;-2.388;2022-09-03T06:25:58;71;69;
71872;PMS5003;59745;52.924;-2.388;2022-09-03T06:28:22;82;77;
71872;PMS5003;59745;52.924;-2.388;2022-09-03T06:30:48;86;79;
71872;PMS5003;59745;52.924;-2.388;2022-09-03T06:33:13;87;79;
71872;PMS5003;59745;52.924;-2.388;2022-09-03T06:35:39;74;69;
71872;PMS5003;59745;52.924;-2.388;2022-09-03T06:38:04;73;70;
71872;PMS5003;59745;52.924;-2.388;2022-09-03T06:40:29;74;68;
71872;PMS5003;59745;52.924;-2.388;2022-09-03T06:42:56;71;68;
71872;PMS5003;59745;52.924;-2.388;2022-09-03T06:45:21;81;79;
71872;PMS5003;59745;52.924;-2.388;2022-09-03T06:47:46;75;72;
71872;PMS5003;59745;52.924;-2.388;2022-09-03T06:50:12;72;66;
71872;PMS5003;59745;52.924;-2.388;2022-09-03T06:52:37;84;79;
71872;PMS5003;59745;52.924;-2.388;2022-09-03T06:55:03;84;79;
71872;PMS5003;59745;52.924;-2.388;2022-09-03T06:57:27;77;73;
71872;PMS5003;59745;52.924;-2.388;2022-09-03T06:59:53;77;75;
71872;PMS5003;59745;52.924;-2.388;2022-09-03T07:02:19;69;67;
71872;PMS5003;59745;52.924;-2.388;2022-09-03T07:04:44;83;77;
71872;PMS5003;59745;52.924;-2.388;2022-09-03T07:07:09;73;70;
71872;PMS5003;59745;52.924;-2.388;2022-09-03T07:09:35;63;61;
71872;PMS5003;59745;52.924;-2.388;2022-09-03T07:12:01;79;76;
71872;PMS5003;59745;52.924;-2.388;2022-09-03T07:14:26;75;74;
71872;PMS5003;59745;52.924;-2.388;2022-09-03T07:16:52;72;70;
71872;PMS5003;59745;52.924;-2.388;2022-09-03T07:19:17;72;68;
71872;PMS5003;59745;52.924;-2.388;2022-09-03T07:21:43;65;61;
71872;PMS5003;59745;52.924;-2.388;2022-09-03T07:24:09;72;70;
71872;PMS5003;59745;52.924;-2.388;2022-09-03T07:26:35;66;64;
71872;PMS5003;59745;52.924;-2.388;2022-09-03T07:29:00;72;68;
71872;PMS5003;59745;52.924;-2.388;2022-09-03T07:31:26;50;50;
71872;PMS5003;59745;52.924;-2.388;2022-09-03T07:33:52;61;58;
71872;PMS5003;59745;52.924;-2.388;2022-09-03T07:36:16;76;72;
71872;PMS5003;59745;52.924;-2.388;2022-09-03T07:38:43;66;60;
71872;PMS5003;59745;52.924;-2.388;2022-09-03T07:41:08;69;67;
71872;PMS5003;59745;52.924;-2.388;2022-09-03T07:43:33;66;63;
71872;PMS5003;59745;52.924;-2.388;2022-09-03T07:45:58;59;53;
71872;PMS5003;59745;52.924;-2.388;2022-09-03T07:48:23;71;66;
71872;PMS5003;59745;52.924;-2.388;2022-09-03T07:50:48;58;54;
71872;PMS5003;59745;52.924;-2.388;2022-09-03T07:53:14;63;63;
71872;PMS5003;59745;52.924;-2.388;2022-09-03T07:55:38;65;61;
71872;PMS5003;59745;52.924;-2.388;2022-09-03T07:58:03;65;63;
71872;PMS5003;59745;52.924;-2.388;2022-09-03T08:00:29;69;66;
71872;PMS5003;59745;52.924;-2.388;2022-09-03T08:02:54;63;60;
71872;PMS5003;59745;52.924;-2.388;2022-09-03T08:05:20;69;66;
71872;PMS5003;59745;52.924;-2.388;2022-09-03T08:07:45;57;53;
71872;PMS5003;59745;52.924;-2.388;2022-09-03T08:10:10;59;58;
71872;PMS5003;59745;52.924;-2.388;2022-09-03T08:12:35;50;50;
71872;PMS5003;59745;52.924;-2.388;2022-09-03T08:15:01;52;52;
71872;PMS5003;59745;52.924;-2.388;2022-09-03T08:17:27;51;49;
71872;PMS5003;59745;52.924;-2.388;2022-09-03T08:19:52;67;64;
71872;PMS5003;59745;52.924;-2.388;2022-09-03T08:22:18;72;70;
71872;PMS5003;59745;52.924;-2.388;2022-09-03T08:24:43;70;65;
71872;PMS5003;59745;52.924;-2.388;2022-09-03T08:27:08;51;48;
71872;PMS5003;59745;52.924;-2.388;2022-09-03T08:29:33;67;63;
71872;PMS5003;59745;52.924;-2.388;2022-09-03T08:31:58;63;60;
71872;PMS5003;59745;52.924;-2.388;2022-09-03T08:34:24;68;65;
71872;PMS5003;59745;52.924;-2.388;2022-09-03T08:36:49;67;59;
71872;PMS5003;59745;52.924;-2.388;2022-09-03T08:39:15;55;53;
71872;PMS5003;59745;52.924;-2.388;2022-09-03T08:41:45;60;59;
71872;PMS5003;59745;52.924;-2.388;2022-09-03T08:44:09;50;48;
71872;PMS5003;59745;52.924;-2.388;2022-09-03T08:46:34;50;47;
71872;PMS5003;59745;52.924;-2.388;2022-09-03T08:48:58;61;59;
71872;PMS5003;59745;52.924;-2.388;2022-09-03T08:51:24;54;50;
71872;PMS5003;59745;52.924;-2.388;2022-09-03T08:53:49;38;38;
71872;PMS5003;59745;52.924;-2.388;2022-09-03T08:56:17;53;53;
71872;PMS5003;59745;52.924;-2.388;2022-09-03T08:58:40;41;41;
71872;PMS5003;59745;52.924;-2.388;2022-09-03T09:01:11;54;52;
71872;PMS5003;59745;52.924;-2.388;2022-09-03T09:03:34;55;51;
71872;PMS5003;59745;52.924;-2.388;2022-09-03T09:05:59;46;42;
71872;PMS5003;59745;52.924;-2.388;2022-09-03T09:08:24;44;43;
71872;PMS5003;59745;52.924;-2.388;2022-09-03T09:10:48;32;32;
71872;PMS5003;59745;52.924;-2.388;2022-09-03T09:13:16;38;36;
71872;PMS5003;59745;52.924;-2.388;2022-09-03T09:15:40;42;39;
71872;PMS5003;59745;52.924;-2.388;2022-09-03T09:18:07;37;35;
71872;PMS5003;59745;52.924;-2.388;2022-09-03T09:20:31;32;31;
71872;PMS5003;59745;52.924;-2.388;2022-09-03T09:22:56;28;27;
71872;PMS5003;59745;52.924;-2.388;2022-09-03T09:25:21;30;27;
71872;PMS5003;59745;52.924;-2.388;2022-09-03T09:27:47;27;25;
71872;PMS5003;59745;52.924;-2.388;2022-09-03T09:30:12;33;33;
71872;PMS5003;59745;52.924;-2.388;2022-09-03T09:32:37;27;26;
71872;PMS5003;59745;52.924;-2.388;2022-09-03T09:35:05;33;31;
71872;PMS5003;59745;52.924;-2.388;2022-09-03T09:37:27;23;23;
71872;PMS5003;59745;52.924;-2.388;2022-09-03T09:39:53;25;24;
71872;PMS5003;59745;52.924;-2.388;2022-09-03T09:42:20;21;19;
71872;PMS5003;59745;52.924;-2.388;2022-09-03T09:44:44;19;18;
71872;PMS5003;59745;52.924;-2.388;2022-09-03T09:47:11;17;17;
71872;PMS5003;59745;52.924;-2.388;2022-09-03T09:49:36;21;19;
71872;PMS5003;59745;52.924;-2.388;2022-09-03T09:52:03;23;21;
71872;PMS5003;59745;52.924;-2.388;2022-09-03T09:54:27;19;19;
71872;PMS5003;59745;52.924;-2.388;2022-09-03T09:56:57;20;19;
71872;PMS5003;59745;52.924;-2.388;2022-09-03T09:59:18;19;19;
71872;PMS5003;59745;52.924;-2.388;2022-09-03T10:01:43;17;15;
71872;PMS5003;59745;52.924;-2.388;2022-09-03T10:04:10;18;18;
71872;PMS5003;59745;52.924;-2.388;2022-09-03T10:06:35;15;15;
71872;PMS5003;59745;52.924;-2.388;2022-09-03T10:09:05;24;23;
71872;PMS5003;59745;52.924;-2.388;2022-09-03T10:11:25;18;18;
71872;PMS5003;59745;52.924;-2.388;2022-09-03T10:13:50;19;18;
71872;PMS5003;59745;52.924;-2.388;2022-09-03T10:16:19;23;22;
71872;PMS5003;59745;52.924;-2.388;2022-09-03T10:18:41;22;21;
71872;PMS5003;59745;52.924;-2.388;2022-09-03T10:21:07;19;19;
71872;PMS5003;59745;52.924;-2.388;2022-09-03T10:23:32;25;22;
71872;PMS5003;59745;52.924;-2.388;2022-09-03T10:25:59;24;22;
71872;PMS5003;59745;52.924;-2.388;2022-09-03T10:28:24;22;22;
71872;PMS5003;59745;52.924;-2.388;2022-09-03T10:30:58;27;24;
71872;PMS5003;59745;52.924;-2.388;2022-09-03T10:33:15;17;17;
71872;PMS5003;59745;52.924;-2.388;2022-09-03T10:35:40;22;21;
71872;PMS5003;59745;52.924;-2.388;2022-09-03T10:38:07;18;18;
71872;PMS5003;59745;52.924;-2.388;2022-09-03T10:40:30;18;18;
71872;PMS5003;59745;52.924;-2.388;2022-09-03T10:42:59;23;22;
71872;PMS5003;59745;52.924;-2.388;2022-09-03T10:45:22;20;20;
71872;PMS5003;59745;52.924;-2.388;2022-09-03T10:47:58;19;19;
71872;PMS5003;59745;52.924;-2.388;2022-09-03T10:50:13;17;16;
71872;PMS5003;59745;52.924;-2.388;2022-09-03T10:52:38;18;17;
71872;PMS5003;59745;52.924;-2.388;2022-09-03T10:55:06;13;13;
71872;PMS5003;59745;52.924;-2.388;2022-09-03T10:57:30;15;15;
71872;PMS5003;59745;52.924;-2.388;2022-09-03T10:59:57;16;15;
71872;PMS5003;59745;52.924;-2.388;2022-09-03T11:02:25;15;15;
71872;PMS5003;59745;52.924;-2.388;2022-09-03T11:04:45;17;16;
71872;PMS5003;59745;52.924;-2.388;2022-09-03T11:07:11;20;20;
71872;PMS5003;59745;52.924;-2.388;2022-09-03T11:09:35;16;15;
71872;PMS5003;59745;52.924;-2.388;2022-09-03T11:12:00;17;17;
71872;PMS5003;59745;52.924;-2.388;2022-09-03T11:14:28;22;21;
71872;PMS5003;59745;52.924;-2.388;2022-09-03T11:16:51;22;22;
71872;PMS5003;59745;52.924;-2.388;2022-09-03T11:19:16;24;23;
71872;PMS5003;59745;52.924;-2.388;2022-09-03T11:21:41;20;20;
71872;PMS5003;59745;52.924;-2.388;2022-09-03T11:24:10;15;15;
71872;PMS5003;59745;52.924;-2.388;2022-09-03T11:26:33;15;15;
71872;PMS5003;59745;52.924;-2.388;2022-09-03T11:28:58;25;21;
71872;PMS5003;59745;52.924;-2.388;2022-09-03T11:31:25;18;18;
71872;PMS5003;59745;52.924;-2.388;2022-09-03T11:33:50;17;17;
71872;PMS5003;59745;52.924;-2.388;2022-09-03T11:38:39;16;16;
71872;PMS5003;59745;52.924;-2.388;2022-09-03T11:41:10;18;17;
71872;PMS5003;59745;52.924;-2.388;2022-09-03T11:43:31;15;15;
71872;PMS5003;59745;52.924;-2.388;2022-09-03T11:46:02;15;15;
71872;PMS5003;59745;52.924;-2.388;2022-09-03T11:50:51;21;21;
71872;PMS5003;59745;52.924;-2.388;2022-09-03T12:00:27;25;23;
71872;PMS5003;59745;52.924;-2.388;2022-09-03T12:02:54;19;18;
71872;PMS5003;59745;52.924;-2.388;2022-09-03T12:05:21;21;20;
71872;PMS5003;59745;52.924;-2.388;2022-09-03T12:07:47;23;21;
71872;PMS5003;59745;52.924;-2.388;2022-09-03T12:10:11;18;18;
71872;PMS5003;59745;52.924;-2.388;2022-09-03T12:12:40;17;16;
71872;PMS5003;59745;52.924;-2.388;2022-09-03T12:15:02;16;14;
71872;PMS5003;59745;52.924;-2.388;2022-09-03T12:17:26;19;19;
71872;PMS5003;59745;52.924;-2.388;2022-09-03T12:19:50;23;23;
71872;PMS5003;59745;52.924;-2.388;2022-09-03T12:22:15;18;16;
71872;PMS5003;59745;52.924;-2.388;2022-09-03T12:24:41;15;14;
71872;PMS5003;59745;52.924;-2.388;2022-09-03T12:27:06;20;19;
71872;PMS5003;59745;52.924;-2.388;2022-09-03T12:29:31;21;19;
71872;PMS5003;59745;52.924;-2.388;2022-09-03T12:34:22;20;18;
71872;PMS5003;59745;52.924;-2.388;2022-09-03T12:36:48;13;12;
71872;PMS5003;59745;52.924;-2.388;2022-09-03T12:39:12;15;14;
71872;PMS5003;59745;52.924;-2.388;2022-09-03T12:41:37;17;17;
71872;PMS5003;59745;52.924;-2.388;2022-09-03T12:44:02;19;18;
71872;PMS5003;59745;52.924;-2.388;2022-09-03T12:46:27;16;15;
71872;PMS5003;59745;52.924;-2.388;2022-09-03T12:48:53;21;21;
71872;PMS5003;59745;52.924;-2.388;2022-09-03T12:51:17;19;19;
71872;PMS5003;59745;52.924;-2.388;2022-09-03T12:53:43;17;16;
71872;PMS5003;59745;52.924;-2.388;2022-09-03T12:56:08;16;15;
71872;PMS5003;59745;52.924;-2.388;2022-09-03T12:58:34;19;19;
71872;PMS5003;59745;52.924;-2.388;2022-09-03T13:01:03;19;18;
71872;PMS5003;59745;52.924;-2.388;2022-09-03T13:03:26;19;18;
71872;PMS5003;59745;52.924;-2.388;2022-09-03T13:05:50;17;17;
71872;PMS5003;59745;52.924;-2.388;2022-09-03T13:08:17;14;13;
71872;PMS5003;59745;52.924;-2.388;2022-09-03T13:10:40;21;21;
71872;PMS5003;59745;52.924;-2.388;2022-09-03T13:13:06;16;15;
71872;PMS5003;59745;52.924;-2.388;2022-09-03T13:15:30;14;14;
71872;PMS5003;59745;52.924;-2.388;2022-09-03T13:18:00;13;13;
71872;PMS5003;59745;52.924;-2.388;2022-09-03T13:20:25;17;16;
71872;PMS5003;59745;52.924;-2.388;2022-09-03T13:22:49;17;17;
71872;PMS5003;59745;52.924;-2.388;2022-09-03T13:25:12;15;14;
71872;PMS5003;59745;52.924;-2.388;2022-09-03T13:27:37;17;15;
71872;PMS5003;59745;52.924;-2.388;2022-09-03T13:30:04;17;16;
71872;PMS5003;59745;52.924;-2.388;2022-09-03T13:32:29;15;14;
71872;PMS5003;59745;52.924;-2.388;2022-09-03T13:34:53;16;15;
71872;PMS5003;59745;52.924;-2.388;2022-09-03T13:37:21;16;16;
71872;PMS5003;59745;52.924;-2.388;2022-09-03T13:39:45;16;16;
71872;PMS5003;59745;52.924;-2.388;2022-09-03T13:42:09;14;14;
71872;PMS5003;59745;52.924;-2.388;2022-09-03T13:44:36;18;17;
71872;PMS5003;59745;52.924;-2.388;2022-09-03T13:47:00;13;13;
71872;PMS5003;59745;52.924;-2.388;2022-09-03T13:49:27;14;14;
71872;PMS5003;59745;52.924;-2.388;2022-09-03T13:51:52;17;17;
71872;PMS5003;59745;52.924;-2.388;2022-09-03T13:54:17;13;12;
71872;PMS5003;59745;52.924;-2.388;2022-09-03T13:56:46;13;13;
71872;PMS5003;59745;52.924;-2.388;2022-09-03T13:59:10;15;14;
71872;PMS5003;59745;52.924;-2.388;2022-09-03T14:01:38;13;13;
71872;PMS5003;59745;52.924;-2.388;2022-09-03T14:04:00;14;14;
71872;PMS5003;59745;52.924;-2.388;2022-09-03T14:06:28;14;14;
71872;PMS5003;59745;52.924;-2.388;2022-09-03T14:08:55;15;14;
71872;PMS5003;59745;52.924;-2.388;2022-09-03T14:11:20;13;13;
71872;PMS5003;59745;52.924;-2.388;2022-09-03T14:13:44;14;13;
71872;PMS5003;59745;52.924;-2.388;2022-09-03T14:16:06;16;15;
71872;PMS5003;59745;52.924;-2.388;2022-09-03T14:18:34;14;13;
71872;PMS5003;59745;52.924;-2.388;2022-09-03T14:20:57;14;13;
71872;PMS5003;59745;52.924;-2.388;2022-09-03T14:23:24;15;14;
71872;PMS5003;59745;52.924;-2.388;2022-09-03T14:25:51;13;13;
71872;PMS5003;59745;52.924;-2.388;2022-09-03T14:28:12;12;12;
71872;PMS5003;59745;52.924;-2.388;2022-09-03T14:30:37;15;15;
71872;PMS5003;59745;52.924;-2.388;2022-09-03T14:33:03;15;15;
71872;PMS5003;59745;52.924;-2.388;2022-09-03T14:35:30;15;15;
71872;PMS5003;59745;52.924;-2.388;2022-09-03T14:37:57;16;15;
71872;PMS5003;59745;52.924;-2.388;2022-09-03T14:40:17;14;13;
71872;PMS5003;59745;52.924;-2.388;2022-09-03T14:45:13;11;11;
71872;PMS5003;59745;52.924;-2.388;2022-09-03T14:47:36;14;13;
71872;PMS5003;59745;52.924;-2.388;2022-09-03T14:50:02;15;13;
71872;PMS5003;59745;52.924;-2.388;2022-09-03T14:54:50;16;15;
71872;PMS5003;59745;52.924;-2.388;2022-09-03T14:57:19;12;11;
71872;PMS5003;59745;52.924;-2.388;2022-09-03T14:59:43;12;12;
71872;PMS5003;59745;52.924;-2.388;2022-09-03T15:04:34;18;18;
71872;PMS5003;59745;52.924;-2.388;2022-09-03T15:07:00;12;12;
71872;PMS5003;59745;52.924;-2.388;2022-09-03T15:09:21;18;17;
71872;PMS5003;59745;52.924;-2.388;2022-09-03T15:11:46;18;18;
71872;PMS5003;59745;52.924;-2.388;2022-09-03T15:14:11;18;18;
71872;PMS5003;59745;52.924;-2.388;2022-09-03T15:16:39;19;17;
71872;PMS5003;59745;52.924;-2.388;2022-09-03T15:19:08;20;19;
71872;PMS5003;59745;52.924;-2.388;2022-09-03T15:21:28;16;16;
71872;PMS5003;59745;52.924;-2.388;2022-09-03T15:23:54;17;17;
71872;PMS5003;59745;52.924;-2.388;2022-09-03T15:26:22;22;21;
71872;PMS5003;59745;52.924;-2.388;2022-09-03T15:28:45;16;16;
71872;PMS5003;59745;52.924;-2.388;2022-09-03T15:31:09;19;18;
71872;PMS5003;59745;52.924;-2.388;2022-09-03T15:33:34;15;15;
71872;PMS5003;59745;52.924;-2.388;2022-09-03T15:36:02;20;18;
71872;PMS5003;59745;52.924;-2.388;2022-09-03T15:38:24;22;22;
71872;PMS5003;59745;52.924;-2.388;2022-09-03T15:40:49;19;19;
71872;PMS5003;59745;52.924;-2.388;2022-09-03T15:43:15;19;17;
71872;PMS5003;59745;52.924;-2.388;2022-09-03T15:45:40;20;19;
71872;PMS5003;59745;52.924;-2.388;2022-09-03T15:48:07;15;14;
71872;PMS5003;59745;52.924;-2.388;2022-09-03T15:50:31;16;16;
71872;PMS5003;59745;52.924;-2.388;2022-09-03T15:52:55;19;18;
71872;PMS5003;59745;52.924;-2.388;2022-09-03T15:55:23;17;16;
71872;PMS5003;59745;52.924;-2.388;2022-09-03T15:57:45;16;16;
71872;PMS5003;59745;52.924;-2.388;2022-09-03T16:00:10;14;14;
71872;PMS5003;59745;52.924;-2.388;2022-09-03T16:02:38;14;14;
71872;PMS5003;59745;52.924;-2.388;2022-09-03T16:05:02;17;14;
71872;PMS5003;59745;52.924;-2.388;2022-09-03T16:07:26;22;20;
71872;PMS5003;59745;52.924;-2.388;2022-09-03T16:09:53;15;15;
71872;PMS5003;59745;52.924;-2.388;2022-09-03T16:12:19;15;14;
71872;PMS5003;59745;52.924;-2.388;2022-09-03T16:14:43;16;15;
71872;PMS5003;59745;52.924;-2.388;2022-09-03T16:17:12;15;15;
71872;PMS5003;59745;52.924;-2.388;2022-09-03T16:19:34;17;17;
71872;PMS5003;59745;52.924;-2.388;2022-09-03T16:21:59;17;17;